หน้าหลัก
METAR-TAF:

METAR-TAF

ท่าอากาศยาน :

Grant County Airport

Silver City, นิวเม็กซิโก, สหรัฐอเมริกา

ละติจูด: 32-38N, ลองจิจูด: 108-09W, ความสูง: 1659 ม.

การสังเกตสภาพอากาศปัจจุบัน

รายงานได้ทำขึ้นเมื่อ 21 นาทีที่แล้ว ณ เวลา 14:15 UTC
ลม 4 นอตจากตะวันตก
อุณหภูมิ 26°C
ความชื้น 26%
ความกดอากาศ 1023 hPa
ทัศนวิสัย: 16.1 กม.
ท้องฟ้าแจ่มใส

METAR: KSVC 121415Z AUTO 28004KT 10SM CLR 26/05 A3022 RMK AO2 T02640048

เวลา: 08:36 (14:36 UTC)


TAF: หายไป

สังเกตการณ์สภาพอากาศและพยากรณ์อากาศของสนามบินมากกว่า 4000 แห่ง (รายงาน METAR และ TAF).

สถานีที่ดูได้จะแสดงไว้ด้วยจุดสีเหลืองและสีแดงบนแผนที่.

เลื่อนเมาส์ไปเหนือจุดเพื่อดูชื่อสถานี.

แล้วคลิกเพื่อดูสังเกตการณ์และการพยากรณ์สภาพอากาศ.

ในการเปลี่ยนแผนที่: คลิกที่ปุ่มสีเขียวที่มีกากบาทสีดำเพื่อซูมเข้า; ที่ปุ่มสีเขียวที่มีขีดเพื่อซูมออก; หรือที่ลูกศรสีเขียวเพื่อไปยังแผนที่ที่อยู่ติดกัน.


METAR-TAF: